Time;durP1;ratioP1;P1;durP2;ratioP2;P2;SDS_P1;SDS_P2;PMS_P1;PMS_P2;Temp;Humidity;BMP_temperature;BMP_pressure;BME280_temperature;BME280_humidity;BME280_pressure;Samples;Min_cycle;Max_cycle;Signal;HPM_P1;HPM_P2
2022/11/09 00:01:38;;;;;;;3.27;1.27;;;17.20;97.00;;;;;;5058547;28;20680;-82
2022/11/09 00:04:05;;;;;;;2.03;1.10;;;17.20;97.20;;;;;;5067430;28;20023;-80
2022/11/09 00:06:32;;;;;;;4.32;1.15;;;17.30;96.70;;;;;;5067804;28;20024;-80
2022/11/09 00:08:58;;;;;;;2.85;1.15;;;17.30;97.10;;;;;;5049998;28;20506;-80
2022/11/09 00:11:24;;;;;;;4.03;1.30;;;17.30;97.10;;;;;;5029719;28;20027;-81
2022/11/09 00:13:50;;;;;;;2.47;1.00;;;17.30;96.80;;;;;;5057006;28;20123;-82
2022/11/09 00:16:19;;;;;;;2.20;0.90;;;17.30;96.90;;;;;;5057275;28;20353;-82
2022/11/09 00:18:48;;;;;;;1.88;0.80;;;17.30;96.70;;;;;;5072549;28;20216;-81
2022/11/09 00:21:16;;;;;;;2.25;1.10;;;17.30;96.90;;;;;;5053729;28;20307;-82
2022/11/09 00:23:43;;;;;;;3.25;1.20;;;17.30;96.60;;;;;;5069288;28;20028;-82
2022/11/09 00:26:10;;;;;;;2.55;0.90;;;17.30;96.50;;;;;;5030045;28;20381;-80
2022/11/09 00:28:36;;;;;;;2.90;1.10;;;17.30;96.50;;;;;;5067010;28;20016;-81
2022/11/09 00:31:05;;;;;;;1.92;0.90;;;17.30;96.30;;;;;;5049104;28;20055;-81
2022/11/09 00:33:31;;;;;;;2.47;1.10;;;17.20;96.30;;;;;;5068570;28;20028;-80
2022/11/09 00:35:57;;;;;;;3.00;1.00;;;17.20;96.20;;;;;;5067520;28;20047;-80
2022/11/09 00:38:23;;;;;;;3.45;0.90;;;17.20;96.30;;;;;;5074160;28;20025;-80
2022/11/09 00:40:49;;;;;;;3.58;1.08;;;17.20;96.20;;;;;;5056972;28;20581;-82
2022/11/09 00:43:15;;;;;;;3.15;0.82;;;17.10;96.00;;;;;;5056475;28;20071;-81
2022/11/09 00:45:41;;;;;;;3.13;0.90;;;17.10;96.10;;;;;;5057286;28;20029;-81
2022/11/09 00:48:07;;;;;;;1.65;0.80;;;17.10;96.20;;;;;;5065556;28;20247;-81
2022/11/09 00:50:33;;;;;;;3.22;1.10;;;17.10;96.40;;;;;;5069197;28;20024;-81
2022/11/09 00:52:59;;;;;;;2.70;0.90;;;17.10;96.50;;;;;;5066562;28;20032;-81
2022/11/09 00:55:25;;;;;;;4.28;1.00;;;17.10;96.10;;;;;;5067123;28;20025;-81
2022/11/09 00:57:52;;;;;;;1.77;0.80;;;17.10;96.40;;;;;;5033819;28;20024;-81
2022/11/09 01:00:19;;;;;;;2.65;0.90;;;17.10;96.20;;;;;;5065164;28;20021;-81
2022/11/09 01:02:45;;;;;;;4.63;0.90;;;17.00;95.90;;;;;;5048691;28;20416;-81
2022/11/09 01:05:11;;;;;;;3.23;0.97;;;17.00;95.80;;;;;;5072180;28;20086;-80
2022/11/09 01:07:37;;;;;;;4.28;1.00;;;17.00;95.80;;;;;;5068837;28;20070;-79
2022/11/09 01:10:04;;;;;;;2.95;0.85;;;17.00;95.80;;;;;;5068959;28;20244;-80
2022/11/09 01:12:31;;;;;;;3.13;0.93;;;17.00;95.70;;;;;;5050439;28;20028;-81
2022/11/09 01:14:56;;;;;;;1.83;0.77;;;16.90;95.50;;;;;;5065467;28;20488;-81
2022/11/09 01:17:22;;;;;;;2.85;0.80;;;16.90;96.00;;;;;;5059180;28;20020;-80
2022/11/09 01:19:48;;;;;;;2.63;0.87;;;16.90;95.30;;;;;;5070356;28;20032;-78
2022/11/09 01:22:14;;;;;;;4.10;0.90;;;16.80;95.50;;;;;;5066935;28;20267;-79
2022/11/09 01:24:40;;;;;;;2.03;0.90;;;16.80;95.30;;;;;;5074939;28;20055;-79
2022/11/09 01:27:06;;;;;;;4.37;0.90;;;16.80;95.50;;;;;;5044178;28;20083;-80
2022/11/09 01:29:32;;;;;;;2.00;0.85;;;16.80;95.50;;;;;;5070303;28;20063;-81
2022/11/09 01:31:57;;;;;;;3.33;0.90;;;16.80;95.40;;;;;;5056366;28;20042;-80
2022/11/09 01:34:23;;;;;;;3.08;0.85;;;16.70;95.50;;;;;;5070310;28;20029;-80
2022/11/09 01:36:50;;;;;;;4.07;1.10;;;16.70;95.60;;;;;;5071663;28;20024;-79
2022/11/09 01:39:17;;;;;;;3.93;0.90;;;16.70;95.70;;;;;;5073307;28;20659;-81
2022/11/09 01:41:42;;;;;;;2.65;0.77;;;16.70;95.40;;;;;;5058562;28;20012;-79
2022/11/09 01:44:12;;;;;;;4.18;0.90;;;16.60;95.50;;;;;;5044463;28;20298;-80
2022/11/09 01:46:54;;;;;;;2.40;0.90;;;16.60;95.00;;;;;;5071296;28;20073;-81
2022/11/09 01:49:32;;;;;;;5.37;1.00;;;16.60;94.80;;;;;;5047807;28;20051;-80
2022/11/09 01:52:15;;;;;;;3.53;0.90;;;16.70;95.30;;;;;;5067531;28;20032;-79
2022/11/09 01:54:46;;;;;;;2.65;0.80;;;16.60;94.60;;;;;;5067147;28;20036;-83
2022/11/09 01:57:25;;;;;;;2.17;0.82;;;16.60;95.40;;;;;;5058727;28;20024;-80
2022/11/09 01:59:58;;;;;;;2.63;0.80;;;16.70;95.10;;;;;;5045879;28;20465;-80
2022/11/09 02:02:24;;;;;;;2.50;0.80;;;16.60;95.50;;;;;;5069838;28;20414;-80
2022/11/09 02:04:59;;;;;;;4.93;1.10;;;16.60;95.80;;;;;;5040536;28;20065;-80
2022/11/09 02:07:25;;;;;;;2.53;0.90;;;16.60;95.80;;;;;;5066638;28;20052;-81
2022/11/09 02:10:05;;;;;;;2.97;1.00;;;16.60;96.20;;;;;;5067056;28;20450;-81
2022/11/09 02:12:33;;;;;;;4.40;0.90;;;16.60;95.30;;;;;;5065719;28;20054;-81
2022/11/09 02:15:02;;;;;;;5.35;1.38;;;16.60;96.00;;;;;;5044933;28;20389;-81
2022/11/09 02:17:28;;;;;;;3.28;1.10;;;16.60;95.70;;;;;;5052403;28;20086;-81
2022/11/09 02:19:57;;;;;;;3.87;1.10;;;16.60;96.10;;;;;;5039538;28;20418;-81
2022/11/09 02:22:22;;;;;;;3.72;1.40;;;16.60;96.00;;;;;;5064872;28;20039;-81
2022/11/09 02:24:48;;;;;;;5.28;1.15;;;16.60;96.10;;;;;;5048651;28;20020;-83
2022/11/09 02:27:14;;;;;;;3.93;1.07;;;16.50;96.10;;;;;;5064435;28;20217;-81
2022/11/09 02:29:42;;;;;;;3.00;1.00;;;16.50;96.00;;;;;;5068125;28;20665;-81
2022/11/09 02:32:16;;;;;;;4.38;1.30;;;16.40;95.90;;;;;;5042675;28;20315;-82
2022/11/09 02:34:41;;;;;;;4.00;1.20;;;16.40;95.80;;;;;;5064679;28;20035;-82
2022/11/09 02:37:07;;;;;;;4.00;1.10;;;16.30;96.10;;;;;;5049922;28;20021;-82
2022/11/09 02:39:33;;;;;;;4.78;1.13;;;16.30;96.10;;;;;;5049880;28;20480;-81
2022/11/09 02:42:08;;;;;;;3.87;1.10;;;16.20;96.10;;;;;;5064286;28;20032;-82
2022/11/09 02:44:42;;;;;;;4.10;0.93;;;16.20;96.20;;;;;;5073178;28;20692;-81
2022/11/09 02:47:08;;;;;;;6.47;1.50;;;16.20;96.40;;;;;;5043057;28;20044;-81
2022/11/09 02:49:34;;;;;;;4.57;1.20;;;16.10;96.60;;;;;;5071231;28;20102;-80
2022/11/09 02:51:59;;;;;;;2.10;0.90;;;16.10;96.70;;;;;;5047417;28;20057;-80
2022/11/09 02:54:25;;;;;;;6.85;1.20;;;16.10;96.80;;;;;;5062723;28;20269;-82
2022/11/09 02:56:50;;;;;;;3.70;1.03;;;16.10;96.90;;;;;;5047454;28;20617;-81
2022/11/09 02:59:16;;;;;;;4.20;1.30;;;16.10;97.00;;;;;;5063954;28;20328;-80
2022/11/09 03:01:42;;;;;;;5.32;1.38;;;16.10;97.10;;;;;;5063341;28;20020;-81
2022/11/09 03:04:07;;;;;;;3.20;1.10;;;16.00;97.10;;;;;;5028451;28;20101;-81
2022/11/09 03:06:33;;;;;;;4.85;1.30;;;16.10;97.10;;;;;;5057710;28;20024;-81
2022/11/09 03:09:04;;;;;;;3.97;1.00;;;16.10;96.90;;;;;;5049508;28;20037;-81
2022/11/09 03:11:30;;;;;;;5.07;1.33;;;16.10;96.60;;;;;;5067074;28;20377;-82
2022/11/09 03:13:56;;;;;;;3.10;1.10;;;16.10;97.00;;;;;;5067930;28;20031;-79
2022/11/09 03:16:21;;;;;;;3.67;1.20;;;16.10;97.00;;;;;;5050088;28;20032;-80
2022/11/09 03:18:47;;;;;;;6.87;1.40;;;16.00;96.90;;;;;;5060215;28;20044;-81
2022/11/09 03:21:13;;;;;;;3.67;1.20;;;16.10;96.90;;;;;;5047469;28;20051;-81
2022/11/09 03:23:39;;;;;;;4.90;1.10;;;16.00;96.90;;;;;;5052358;28;20021;-80
2022/11/09 03:26:05;;;;;;;3.37;1.20;;;16.00;96.90;;;;;;5060796;28;20024;-79
2022/11/09 03:28:30;;;;;;;4.82;1.23;;;16.00;96.90;;;;;;5068867;28;20545;-81
2022/11/09 03:30:56;;;;;;;4.30;1.30;;;16.00;97.00;;;;;;5069967;28;20032;-82
2022/11/09 03:33:23;;;;;;;6.00;1.53;;;15.90;97.10;;;;;;5030016;28;20266;-82
2022/11/09 03:35:48;;;;;;;4.18;1.45;;;15.90;96.90;;;;;;5069974;28;20792;-82
2022/11/09 03:38:14;;;;;;;5.35;1.13;;;15.90;97.20;;;;;;5055676;28;20767;-81
2022/11/09 03:40:39;;;;;;;3.37;1.00;;;15.90;97.20;;;;;;5071297;28;20024;-81
2022/11/09 03:43:05;;;;;;;3.67;1.30;;;15.90;97.20;;;;;;5052384;28;20523;-81
2022/11/09 03:45:31;;;;;;;3.87;1.33;;;15.90;97.20;;;;;;5067948;28;20032;-81
2022/11/09 03:47:59;;;;;;;4.00;1.08;;;15.80;97.10;;;;;;5071060;28;20049;-79
2022/11/09 03:50:30;;;;;;;4.20;1.10;;;15.90;97.30;;;;;;5045728;28;20025;-81
2022/11/09 03:52:56;;;;;;;5.72;1.13;;;15.80;97.10;;;;;;5061338;28;20024;-81
2022/11/09 03:55:22;;;;;;;2.88;0.90;;;15.80;97.20;;;;;;5071289;27;20101;-80
2022/11/09 03:57:48;;;;;;;3.77;1.00;;;15.80;97.30;;;;;;5067154;28;20017;-79
2022/11/09 04:00:17;;;;;;;4.22;1.00;;;15.80;97.30;;;;;;5067334;28;20127;-80
2022/11/09 04:02:43;;;;;;;4.47;1.20;;;15.80;97.00;;;;;;5059824;28;20408;-81
2022/11/09 04:05:09;;;;;;;4.17;1.40;;;15.70;97.20;;;;;;5043307;28;20264;-80
2022/11/09 04:07:35;;;;;;;2.63;0.90;;;15.70;97.20;;;;;;5068035;28;20032;-82
2022/11/09 04:10:00;;;;;;;4.35;1.13;;;15.70;97.10;;;;;;5055884;28;20080;-80
2022/11/09 04:12:26;;;;;;;3.93;1.03;;;15.70;97.20;;;;;;5063355;28;20626;-81
2022/11/09 04:14:52;;;;;;;3.38;1.10;;;15.60;97.20;;;;;;5066844;28;20107;-81
2022/11/09 04:17:17;;;;;;;4.20;0.90;;;15.60;97.30;;;;;;5064237;28;20305;-82
2022/11/09 04:19:43;;;;;;;2.27;0.87;;;15.60;97.40;;;;;;5066011;28;20469;-81
2022/11/09 04:22:09;;;;;;;2.72;0.80;;;15.60;97.30;;;;;;5047583;28;20020;-82
2022/11/09 04:24:34;;;;;;;2.87;1.00;;;15.60;97.30;;;;;;5071482;28;20615;-80
2022/11/09 04:27:00;;;;;;;4.07;1.00;;;15.60;97.40;;;;;;5037853;28;20181;-80
2022/11/09 04:29:25;;;;;;;3.67;1.10;;;15.60;97.40;;;;;;5077208;28;20024;-80
2022/11/09 04:31:51;;;;;;;5.13;1.10;;;15.50;97.30;;;;;;5064232;28;20035;-81
2022/11/09 04:34:17;;;;;;;4.93;0.90;;;15.50;97.40;;;;;;5065210;28;20240;-79
2022/11/09 04:36:43;;;;;;;2.78;0.70;;;15.50;97.40;;;;;;5046561;28;20750;-81
2022/11/09 04:39:09;;;;;;;3.58;0.80;;;15.50;97.30;;;;;;5064994;28;20209;-80
2022/11/09 04:41:35;;;;;;;4.07;0.80;;;15.40;97.30;;;;;;5054069;28;20396;-80
2022/11/09 04:44:00;;;;;;;4.60;0.80;;;15.40;97.40;;;;;;5047986;28;20034;-81
2022/11/09 04:46:26;;;;;;;3.07;1.00;;;15.40;97.40;;;;;;5054733;28;20538;-81
2022/11/09 04:48:52;;;;;;;2.72;0.90;;;15.40;97.40;;;;;;5070116;28;20143;-81
2022/11/09 04:51:17;;;;;;;4.27;1.20;;;15.30;97.50;;;;;;5035750;28;20032;-81
2022/11/09 04:53:44;;;;;;;4.07;1.00;;;15.30;97.40;;;;;;5050739;28;20113;-81
2022/11/09 04:56:10;;;;;;;2.97;0.90;;;15.30;97.50;;;;;;5064509;28;20469;-81
2022/11/09 04:58:36;;;;;;;3.63;1.00;;;15.30;97.50;;;;;;5053203;28;20460;-81
2022/11/09 05:01:10;;;;;;;2.80;0.90;;;15.20;97.50;;;;;;5064573;28;20089;-80
2022/11/09 05:03:36;;;;;;;2.63;0.90;;;15.20;97.50;;;;;;5049905;28;20051;-81
2022/11/09 05:06:30;;;;;;;3.70;1.00;;;15.20;97.70;;;;;;5065698;28;20064;-80
2022/11/09 05:08:47;;;;;;;3.00;0.90;;;15.20;97.90;;;;;;5050244;28;20168;-81
2022/11/09 05:11:13;;;;;;;3.23;0.80;;;15.20;97.80;;;;;;5065170;28;20039;-81
2022/11/09 05:13:38;;;;;;;4.20;0.98;;;15.10;97.90;;;;;;5050054;28;20602;-81
2022/11/09 05:16:04;;;;;;;2.90;0.87;;;15.10;97.90;;;;;;5032871;28;20028;-81
2022/11/09 05:18:30;;;;;;;4.50;0.90;;;15.10;97.90;;;;;;5065984;28;20043;-81
2022/11/09 05:21:00;;;;;;;3.77;0.83;;;15.10;97.80;;;;;;5067085;28;20502;-81
2022/11/09 05:26:10;;;;;;;2.08;0.90;;;15.10;97.90;;;;;;5064275;28;20426;-81
2022/11/09 05:28:35;;;;;;;2.93;0.90;;;15.10;97.90;;;;;;5062336;28;20050;-81
2022/11/09 05:31:01;;;;;;;4.90;1.00;;;15.00;97.90;;;;;;5049855;28;20036;-81
2022/11/09 05:33:27;;;;;;;3.20;0.80;;;15.00;97.90;;;;;;5061704;28;20491;-81
2022/11/09 05:35:56;;;;;;;4.03;1.00;;;15.00;97.90;;;;;;5050072;28;20106;-80
2022/11/09 05:38:22;;;;;;;4.15;0.90;;;15.00;98.10;;;;;;5034327;28;20482;-81
2022/11/09 05:40:52;;;;;;;2.05;0.80;;;15.00;98.10;;;;;;5068442;28;20373;-80
2022/11/09 05:43:18;;;;;;;4.18;0.93;;;15.00;98.10;;;;;;5062119;28;20531;-80
2022/11/09 05:45:44;;;;;;;2.10;0.90;;;15.00;98.10;;;;;;5057976;28;20085;-81
2022/11/09 05:48:11;;;;;;;4.60;0.90;;;14.90;98.10;;;;;;5047305;28;20028;-81
2022/11/09 05:50:37;;;;;;;2.78;0.85;;;14.90;98.10;;;;;;5052458;28;20534;-80
2022/11/09 05:53:02;;;;;;;2.55;0.90;;;14.90;98.00;;;;;;5061517;28;20027;-79
2022/11/09 05:55:28;;;;;;;2.40;0.90;;;14.90;98.00;;;;;;5038452;28;20168;-81
2022/11/09 05:57:54;;;;;;;4.38;1.30;;;14.90;97.90;;;;;;5071451;28;20487;-80
2022/11/09 06:00:20;;;;;;;2.75;0.98;;;14.90;97.90;;;;;;5061301;28;20274;-79
2022/11/09 06:02:46;;;;;;;3.97;1.00;;;14.90;98.00;;;;;;5022728;28;20471;-80
2022/11/09 06:05:12;;;;;;;2.50;0.90;;;14.90;98.00;;;;;;5058624;28;20267;-81
2022/11/09 06:07:37;;;;;;;2.47;0.80;;;14.90;97.90;;;;;;5067036;28;20050;-81
2022/11/09 06:10:04;;;;;;;3.08;0.90;;;14.80;97.80;;;;;;5022836;28;22155;-80
2022/11/09 06:12:30;;;;;;;3.88;0.93;;;14.80;97.80;;;;;;5064446;28;20031;-81
2022/11/09 06:14:56;;;;;;;2.37;0.90;;;14.80;97.90;;;;;;5047658;28;20660;-81
2022/11/09 06:17:21;;;;;;;1.83;0.80;;;14.80;97.90;;;;;;5047418;28;20035;-80
2022/11/09 06:19:47;;;;;;;2.17;0.80;;;14.80;98.00;;;;;;5062111;28;20024;-80
2022/11/09 06:22:13;;;;;;;4.45;1.10;;;14.80;97.90;;;;;;5070327;28;20024;-80
2022/11/09 06:24:39;;;;;;;3.47;0.95;;;14.80;98.00;;;;;;5051326;28;20021;-81
2022/11/09 06:27:05;;;;;;;4.03;1.03;;;14.70;98.00;;;;;;5030767;28;20077;-81
2022/11/09 06:29:30;;;;;;;4.18;1.00;;;14.70;98.00;;;;;;5054797;28;20028;-80
2022/11/09 06:31:56;;;;;;;3.03;1.20;;;14.70;98.00;;;;;;5064742;28;20103;-81
2022/11/09 06:34:22;;;;;;;4.03;0.93;;;14.70;98.00;;;;;;5046017;28;20119;-82
2022/11/09 06:36:47;;;;;;;3.03;0.90;;;14.70;98.10;;;;;;5054843;28;20328;-82
2022/11/09 06:39:13;;;;;;;2.53;1.00;;;14.70;98.10;;;;;;5050729;28;20025;-82
2022/11/09 06:41:39;;;;;;;2.50;0.90;;;14.70;98.20;;;;;;5041914;28;20016;-83
2022/11/09 06:44:04;;;;;;;2.55;0.80;;;14.70;98.20;;;;;;5070005;28;20028;-81
2022/11/09 06:46:31;;;;;;;4.37;1.20;;;14.60;98.10;;;;;;5064350;28;20036;-82
2022/11/09 06:48:57;;;;;;;4.28;1.10;;;14.60;98.00;;;;;;5056261;28;20488;-81
2022/11/09 06:51:23;;;;;;;4.20;1.20;;;14.60;98.20;;;;;;5051760;28;20035;-81
2022/11/09 06:53:48;;;;;;;4.93;1.10;;;14.60;98.20;;;;;;5067397;28;20153;-80
2022/11/09 06:56:14;;;;;;;3.65;0.90;;;14.60;98.20;;;;;;5044079;28;20461;-80
2022/11/09 06:58:40;;;;;;;2.00;0.80;;;14.60;98.30;;;;;;5043882;28;20058;-81
2022/11/09 07:01:11;;;;;;;4.32;1.10;;;14.60;98.30;;;;;;5065605;28;20066;-80
2022/11/09 07:03:37;;;;;;;3.83;1.00;;;14.60;98.20;;;;;;5047340;28;20315;-80
2022/11/09 07:06:05;;;;;;;4.20;1.00;;;14.60;98.30;;;;;;5047518;28;20039;-81
2022/11/09 07:08:31;;;;;;;4.50;1.00;;;14.60;98.30;;;;;;5050227;28;20626;-81
2022/11/09 07:11:09;;;;;;;3.90;1.00;;;14.60;98.50;;;;;;5069030;28;20023;-80
2022/11/09 07:13:34;;;;;;;3.05;0.95;;;14.60;98.10;;;;;;5038983;28;20442;-81
2022/11/09 07:16:00;;;;;;;4.07;1.40;;;14.50;98.50;;;;;;5062728;28;20029;-80
2022/11/09 07:18:26;;;;;;;2.72;1.08;;;14.60;98.60;;;;;;5033642;28;20052;-80
2022/11/09 07:20:52;;;;;;;4.63;1.20;;;14.60;98.70;;;;;;5049500;28;20468;-81
2022/11/09 07:23:17;;;;;;;2.63;1.00;;;14.60;98.80;;;;;;5049411;28;20476;-81
2022/11/09 07:25:43;;;;;;;3.25;1.27;;;14.60;98.80;;;;;;5064204;28;20224;-81
2022/11/09 07:28:10;;;;;;;5.27;1.03;;;14.60;98.80;;;;;;4984771;28;20328;-81
2022/11/09 07:30:37;;;;;;;3.78;1.10;;;14.60;98.70;;;;;;5069373;28;20499;-79
2022/11/09 07:33:14;;;;;;;3.47;1.00;;;14.60;98.80;;;;;;5058673;28;20301;-80
2022/11/09 07:35:40;;;;;;;4.10;1.20;;;14.70;98.80;;;;;;5068515;28;20031;-80
2022/11/09 07:38:06;;;;;;;3.78;1.00;;;14.70;99.00;;;;;;5053134;28;20652;-82
2022/11/09 07:40:31;;;;;;;3.40;1.10;;;14.70;99.10;;;;;;5064290;28;20058;-80
2022/11/09 07:43:02;;;;;;;3.78;1.05;;;14.70;99.20;;;;;;5027395;28;20079;-80
2022/11/09 07:45:29;;;;;;;3.47;1.00;;;14.70;98.90;;;;;;5063547;28;20012;-79
2022/11/09 07:47:56;;;;;;;5.47;1.10;;;14.80;99.00;;;;;;5054862;28;20056;-82
2022/11/09 07:50:22;;;;;;;2.40;0.80;;;14.80;99.00;;;;;;5067585;28;20664;-80
2022/11/09 07:52:47;;;;;;;3.03;1.30;;;14.80;99.10;;;;;;5043038;28;20032;-79
2022/11/09 07:55:13;;;;;;;2.97;1.10;;;14.80;99.00;;;;;;5067092;28;20575;-81
2022/11/09 07:57:39;;;;;;;3.23;0.90;;;14.90;99.00;;;;;;5052249;28;20078;-81
2022/11/09 08:00:05;;;;;;;1.92;0.95;;;14.90;99.10;;;;;;5039060;28;20125;-80
2022/11/09 08:02:30;;;;;;;4.60;1.10;;;14.80;99.20;;;;;;5061906;28;20027;-80
2022/11/09 08:04:56;;;;;;;3.90;1.10;;;14.90;99.20;;;;;;5046903;28;20297;-81
2022/11/09 08:07:22;;;;;;;2.77;0.90;;;14.90;99.20;;;;;;5036789;28;20277;-81
2022/11/09 08:09:48;;;;;;;4.18;1.10;;;14.90;99.30;;;;;;5067188;28;20485;-81
2022/11/09 08:12:14;;;;;;;4.65;1.05;;;14.90;99.30;;;;;;5068679;28;20031;-81
2022/11/09 08:14:39;;;;;;;2.77;0.97;;;15.00;99.20;;;;;;5045734;28;20108;-81
2022/11/09 08:17:05;;;;;;;4.72;1.10;;;15.00;99.40;;;;;;5036476;28;20228;-83
2022/11/09 08:19:30;;;;;;;7.23;1.30;;;15.00;99.50;;;;;;5069153;28;20878;-79
2022/11/09 08:21:56;;;;;;;2.90;1.00;;;15.10;99.50;;;;;;5058032;28;20089;-79
2022/11/09 08:24:22;;;;;;;2.90;1.00;;;15.10;99.50;;;;;;5055645;28;20028;-81
2022/11/09 08:26:48;;;;;;;3.42;0.90;;;15.20;99.50;;;;;;5066251;28;20094;-81
2022/11/09 08:29:14;;;;;;;2.90;0.90;;;15.20;99.50;;;;;;5030813;28;20633;-80
2022/11/09 08:31:40;;;;;;;3.20;1.00;;;15.20;99.30;;;;;;5048101;28;20307;-81
2022/11/09 08:34:13;;;;;;;2.97;0.90;;;15.20;99.30;;;;;;5064049;28;20024;-82
2022/11/09 08:36:40;;;;;;;5.18;1.10;;;15.30;99.00;;;;;;5066102;28;20035;-80
2022/11/09 08:39:05;;;;;;;4.07;1.23;;;15.30;99.20;;;;;;5059697;28;20695;-81
2022/11/09 08:41:32;;;;;;;3.83;1.00;;;15.30;99.10;;;;;;5069156;28;20093;-81
2022/11/09 08:43:58;;;;;;;3.80;1.10;;;15.30;99.30;;;;;;5031653;28;20075;-81
2022/11/09 08:46:24;;;;;;;2.20;0.90;;;15.30;99.40;;;;;;5031767;28;20016;-81
2022/11/09 08:48:50;;;;;;;3.08;0.93;;;15.40;99.40;;;;;;5060883;28;20094;-81
2022/11/09 08:51:16;;;;;;;4.78;1.10;;;15.50;99.30;;;;;;5061426;28;20365;-80
2022/11/09 08:53:41;;;;;;;5.23;1.20;;;15.50;99.00;;;;;;5066442;28;20395;-78
2022/11/09 08:56:08;;;;;;;4.72;1.17;;;15.50;99.00;;;;;;5059221;28;20028;-80
2022/11/09 08:58:34;;;;;;;2.10;0.93;;;15.60;99.00;;;;;;5043175;28;20094;-82
2022/11/09 09:01:00;;;;;;;3.50;1.00;;;15.60;99.10;;;;;;5011657;28;21512;-81
2022/11/09 09:03:26;;;;;;;4.20;0.90;;;15.70;99.30;;;;;;5067484;28;20023;-81
2022/11/09 09:05:51;;;;;;;5.17;0.90;;;15.70;99.30;;;;;;5067634;28;20056;-81
2022/11/09 09:08:20;;;;;;;4.20;1.15;;;15.80;98.90;;;;;;5066870;28;20472;-82
2022/11/09 09:10:46;;;;;;;4.47;1.10;;;15.80;99.30;;;;;;5048960;28;20031;-80
2022/11/09 09:13:12;;;;;;;2.53;0.80;;;15.90;99.30;;;;;;5069060;28;20253;-80
2022/11/09 09:15:38;;;;;;;4.35;1.05;;;16.00;99.20;;;;;;5053139;28;20040;-79
2022/11/09 09:18:04;;;;;;;5.07;0.93;;;16.20;99.90;;;;;;5048533;28;20307;-80
2022/11/09 09:20:30;;;;;;;3.43;0.83;;;16.40;99.90;;;;;;5064184;28;20263;-82
2022/11/09 09:23:00;;;;;;;4.32;0.93;;;16.60;99.90;;;;;;5055056;28;20262;-81
2022/11/09 09:25:26;;;;;;;5.60;1.10;;;16.80;99.90;;;;;;5064330;28;20112;-81
2022/11/09 09:27:52;;;;;;;2.97;0.90;;;17.00;99.90;;;;;;5052327;28;20035;-80
2022/11/09 09:30:17;;;;;;;3.33;1.03;;;17.20;99.90;;;;;;5065704;28;20044;-79
2022/11/09 09:32:43;;;;;;;4.63;1.35;;;17.40;99.90;;;;;;5021698;28;20361;-81
2022/11/09 09:35:09;;;;;;;3.37;1.00;;;17.50;99.10;;;;;;5063615;28;20051;-80
2022/11/09 09:37:35;;;;;;;5.03;0.93;;;17.70;99.50;;;;;;5060866;28;20508;-80
2022/11/09 09:40:01;;;;;;;3.22;1.00;;;17.80;98.70;;;;;;5060647;28;20175;-79
2022/11/09 09:42:36;;;;;;;4.27;1.17;;;18.00;99.60;;;;;;5053846;28;20059;-80
2022/11/09 09:45:13;;;;;;;4.30;1.40;;;18.20;98.20;;;;;;5071494;28;20228;-81
2022/11/09 09:48:03;;;;;;;4.88;1.17;;;18.40;99.00;;;;;;5009514;28;20024;-81
2022/11/09 09:50:36;;;;;;;4.23;1.20;;;18.50;96.70;;;;;;5052462;28;21127;-81
2022/11/09 09:53:38;;;;;;;5.47;1.40;;;18.70;98.00;;;;;;5059121;28;20339;-80
2022/11/09 09:56:17;;;;;;;3.30;1.00;;;18.90;97.40;;;;;;5054874;28;20432;-80
2022/11/09 09:58:48;;;;;;;2.38;0.90;;;19.20;97.70;;;;;;5063938;28;20472;-80
2022/11/09 10:01:20;;;;;;;3.72;1.08;;;19.40;97.80;;;;;;5043551;28;20044;-81
2022/11/09 10:03:47;;;;;;;4.83;1.20;;;19.50;96.50;;;;;;5039650;28;20109;-79
2022/11/09 10:06:38;;;;;;;2.95;0.90;;;19.50;96.60;;;;;;5064902;28;20035;-80
2022/11/09 10:09:15;;;;;;;1.88;0.80;;;19.60;93.10;;;;;;5056755;28;20054;-80
2022/11/09 10:11:53;;;;;;;2.13;0.98;;;19.70;96.30;;;;;;5026320;28;20732;-81
2022/11/09 10:14:37;;;;;;;4.68;1.20;;;19.80;95.00;;;;;;5051751;28;20484;-81
2022/11/09 10:17:50;;;;;;;3.13;0.90;;;20.00;95.60;;;;;;5036846;28;20032;-82
2022/11/09 10:20:37;;;;;;;4.20;0.90;;;20.10;93.70;;;;;;4983034;28;20493;-80
2022/11/09 10:23:38;;;;;;;1.92;0.77;;;20.30;93.90;;;;;;5004298;28;20036;-80
2022/11/09 10:26:20;;;;;;;3.05;1.00;;;20.30;93.70;;;;;;5038894;28;20059;-79
2022/11/09 10:29:14;;;;;;;1.77;0.80;;;20.30;94.80;;;;;;5048315;28;20253;-79
2022/11/09 10:31:41;;;;;;;4.60;1.00;;;20.20;94.50;;;;;;5051464;28;20237;-80
2022/11/09 10:34:37;;;;;;;2.22;0.70;;;20.20;94.20;;;;;;5039188;28;20055;-81
2022/11/09 10:37:15;;;;;;;4.95;1.05;;;20.00;89.00;;;;;;5067957;28;20045;-80
2022/11/09 10:39:50;;;;;;;3.35;0.98;;;19.80;91.60;;;;;;5047719;28;20704;-79
2022/11/09 10:42:15;;;;;;;4.05;0.88;;;19.60;91.90;;;;;;5050800;28;20033;-80
2022/11/09 10:44:41;;;;;;;3.03;0.70;;;19.50;94.30;;;;;;5045296;28;20227;-80
2022/11/09 10:47:13;;;;;;;3.00;0.80;;;19.50;94.50;;;;;;5070334;28;20468;-80
2022/11/09 10:49:39;;;;;;;4.93;1.00;;;19.70;94.70;;;;;;5041989;28;20205;-79
2022/11/09 10:52:38;;;;;;;3.08;0.90;;;19.90;95.50;;;;;;5050963;28;20063;-81
2022/11/09 10:55:24;;;;;;;4.40;1.00;;;20.10;93.50;;;;;;5056831;28;20159;-79
2022/11/09 10:57:59;;;;;;;3.60;0.90;;;20.30;91.30;;;;;;5054004;28;20463;-82
2022/11/09 11:00:25;;;;;;;3.83;0.80;;;20.40;93.20;;;;;;5063575;28;20027;-79
2022/11/09 11:02:52;;;;;;;3.77;0.80;;;20.40;92.70;;;;;;5042648;28;20025;-80
2022/11/09 11:05:17;;;;;;;3.30;0.80;;;20.20;91.80;;;;;;5066185;28;20040;-82
2022/11/09 11:07:45;;;;;;;4.70;0.90;;;20.10;92.00;;;;;;5050223;28;20165;-80
2022/11/09 11:10:20;;;;;;;4.30;1.20;;;19.90;92.40;;;;;;5068116;28;20028;-81
2022/11/09 11:12:58;;;;;;;2.88;1.30;;;19.90;90.90;;;;;;5048315;28;20028;-78
2022/11/09 11:15:44;;;;;;;4.20;1.10;;;19.80;90.70;;;;;;5041075;28;20036;-81
2022/11/09 11:18:23;;;;;;;2.60;1.08;;;19.70;86.80;;;;;;5065427;28;20028;-80
2022/11/09 11:21:20;;;;;;;4.10;1.30;;;19.60;88.80;;;;;;5057512;28;20110;-79
2022/11/09 11:24:18;;;;;;;5.10;1.23;;;19.40;90.00;;;;;;5052052;28;20029;-81
2022/11/09 11:27:19;;;;;;;1.83;0.70;;;19.30;90.20;;;;;;5033620;28;20279;-78
2022/11/09 11:29:50;;;;;;;2.63;0.90;;;19.10;91.00;;;;;;5031391;28;20131;-80
2022/11/09 11:32:18;;;;;;;2.58;1.00;;;19.00;91.40;;;;;;5059574;28;20031;-80
2022/11/09 11:34:46;;;;;;;3.83;0.80;;;18.90;91.90;;;;;;5036969;28;20155;-80
2022/11/09 11:37:26;;;;;;;2.58;0.80;;;18.80;91.80;;;;;;5069492;28;20413;-79
2022/11/09 11:39:54;;;;;;;2.22;0.90;;;18.70;90.90;;;;;;5060728;28;20059;-78
2022/11/09 11:42:48;;;;;;;4.22;0.77;;;18.60;91.60;;;;;;5048556;28;20120;-81
2022/11/09 11:45:19;;;;;;;2.67;0.80;;;18.50;91.40;;;;;;5045542;28;20059;-80
2022/11/09 11:48:24;;;;;;;4.10;1.00;;;18.30;91.60;;;;;;5059818;28;20051;-79
2022/11/09 11:51:08;;;;;;;3.72;0.90;;;18.20;90.60;;;;;;5025401;28;20043;-81
2022/11/09 11:53:59;;;;;;;1.60;0.80;;;18.10;91.10;;;;;;5041398;28;20052;-82
2022/11/09 11:57:01;;;;;;;5.80;1.10;;;18.00;91.20;;;;;;5065327;28;20032;-79
2022/11/09 11:59:48;;;;;;;5.57;1.08;;;17.80;90.70;;;;;;5048684;28;21294;-78
2022/11/09 12:02:43;;;;;;;3.93;1.00;;;17.60;91.20;;;;;;5067031;28;20099;-80
2022/11/09 12:05:34;;;;;;;3.35;0.80;;;17.60;92.80;;;;;;5027385;28;20036;-81
2022/11/09 12:08:34;;;;;;;2.80;0.88;;;17.70;94.30;;;;;;5031224;28;20102;-80
2022/11/09 12:11:36;;;;;;;3.47;1.00;;;18.00;93.40;;;;;;5074737;28;20059;-81
2022/11/09 12:14:10;;;;;;;4.03;1.23;;;18.40;96.40;;;;;;5065709;28;20029;-80
2022/11/09 12:17:08;;;;;;;3.33;0.90;;;18.80;96.40;;;;;;5026372;28;20531;-81
2022/11/09 12:19:40;;;;;;;2.78;0.70;;;19.10;92.90;;;;;;5054441;28;20097;-79
2022/11/09 12:22:16;;;;;;;2.25;0.70;;;19.20;93.50;;;;;;5031846;28;20043;-81
2022/11/09 12:25:01;;;;;;;2.38;0.90;;;19.20;93.00;;;;;;5058881;28;20028;-80
2022/11/09 12:27:37;;;;;;;1.63;0.70;;;19.10;91.60;;;;;;5058152;28;20119;-80
2022/11/09 12:30:11;;;;;;;2.77;0.70;;;19.00;92.80;;;;;;5056515;28;20555;-81
2022/11/09 12:32:58;;;;;;;3.53;0.82;;;18.90;91.80;;;;;;5049106;28;20413;-80
2022/11/09 12:35:42;;;;;;;1.73;0.80;;;18.70;91.60;;;;;;5064748;28;20032;-80
2022/11/09 12:38:26;;;;;;;3.47;0.90;;;18.30;91.00;;;;;;5035033;28;20024;-80
2022/11/09 12:40:57;;;;;;;2.97;1.02;;;18.10;90.80;;;;;;5064825;28;20991;-79
2022/11/09 12:44:03;;;;;;;3.53;0.80;;;17.80;91.40;;;;;;5049673;28;20012;-81
2022/11/09 12:46:35;;;;;;;2.72;0.70;;;17.50;91.20;;;;;;5023738;28;20144;-80
2022/11/09 12:49:03;;;;;;;2.22;0.80;;;17.20;93.10;;;;;;5069814;28;20087;-79
2022/11/09 12:51:31;;;;;;;3.13;0.68;;;17.20;93.60;;;;;;5064189;28;20050;-81
2022/11/09 12:53:57;;;;;;;1.70;0.70;;;17.10;94.40;;;;;;5011510;28;20097;-82
2022/11/09 12:56:30;;;;;;;2.60;0.80;;;17.20;94.70;;;;;;5058918;28;20046;-82
2022/11/09 12:59:32;;;;;;;1.30;0.70;;;17.30;94.80;;;;;;5085034;28;20027;-82
2022/11/09 13:01:59;;;;;;;2.47;0.73;;;17.50;95.00;;;;;;5056584;28;20028;-79
2022/11/09 13:04:26;;;;;;;1.60;0.60;;;17.80;96.20;;;;;;5066099;28;20415;-80
2022/11/09 13:07:16;;;;;;;2.10;0.73;;;18.00;96.90;;;;;;5071824;28;20350;-81